Richvale, Pennsylvania
Current Conditions -  °F | °C
As of 1:18 AM on Monday 24 Nov 2014 (Local Time) from KAOO Reporting Station
Light Rain Light Rain  
Wind Chill: 51°   Ceiling: 1400
Heat Index: 51°   Visibility: 5mi
Dew Point: 50°   Wind: 8mph
Humidity: 96%   Direction: 180°S
Pressure: 29.6"   Gusts: NA
Location:  40.2561°N, 77.7747°W
Report Text: KAOO 240618Z AUTO 18007KT 5SM -RA BR SCT010 OVC014 11/10 A2960 RMK AO2 P0002 T01060100
Loading
Personal Weather Stations






























Interactive Weather Map New forecast layout! Learn more

10-Day Weather Forecast

Advertisements
Track Severe Weather on mobile